aviador You're here:

SCQP Decoded Metar

in
Report Time2017-08-24 03:00:00
UTC Time2017-08-24 03:11:16
Flight Rules vfr VFR
Wind350° at 22 kt
W.Rank350° ranks 7
Current wind is above 350° avg. (6.1)
Visibility9999 m
Phenomena:N/A
Clouds:Scattered 035 Hf
Overcast 070 Hf
Expected CloudBase > 1,600 ft AGL from Temp-Dew spread
Ceiling7,000 ft
Temp09°C
Dew Point05°C (76% RH)
AAT-0.0°C
QNH1005 hPa
Raw Report
METAR SCQP 240300Z 35022KT 9999 SCT035 OVC070 09/05 Q1005=

Extra information for SCQP:More info

Social comments